Pagrindinis puslapis
METAR-TAF:

METAR-TAF

Oro uostai :

Alamogordo, Naujoji Meksika, Jungtinės Amerikos Valstijos

platuma: 32-50N, ilguma: 105-59W, Aukštis: 1279 m

Dabartinis oras

Ataskaita buvo paskelbta 16 minutes, ne 10:35 UTC
Vėjas 7 kt iš Šiaurės Vakarų
Temperatūra 15°C
Drėgmė 44%
Slėgis 1020 hPa
Matomumas: 16.1 km
Mažai debesys ne aukštis 4100 ft
Išsisklaidę debesys ne aukštis 8000 ft
Su prošvaistėmis ne aukštis 12000 ft

METAR: KALM 021035Z AUTO 31007KT 10SM FEW041 SCT080 BKN120 15/03 A3013 RMK AO2

Laikas: 04:51 (10:51 UTC)


TAF: trūkstamas

Orai ataskaitas ir orų prognozės (METAR, TAF).

turimą stotys yra geltonos ir raudonos taškus žemėlapyje.

Perkelti pele per norėdami pamatyti stoties vardą.

Tada spustelėkite, norėdami matyti oro stebėjimo ir prognozės.

Norėdami pakeisti žemėlapį: spustelėkite ant žalios mygtukų su juodo kryžiaus žemyn,; žalią mygtuką su brūkšneliu, jei norite nutolinti; arba žalių rodyklių gretimoms žemėlapius.


METAR-TAF: